createdAt,value
2022-08-30T00:00:38.979Z,101116.13
2022-08-30T00:03:09.101Z,101131.06
2022-08-30T00:05:42.075Z,101130.78
2022-08-30T00:08:14.334Z,101133.16
2022-08-30T00:10:43.338Z,101138.81
2022-08-30T00:13:14.767Z,101135.81
2022-08-30T00:15:45.082Z,101148.13
2022-08-30T00:18:13.017Z,101143.88
2022-08-30T00:20:40.706Z,101147.19
2022-08-30T00:23:09.714Z,101144.78
2022-08-30T00:25:38.947Z,101151.09
2022-08-30T00:28:09.904Z,101146.06
2022-08-30T00:30:39.060Z,101141.16
2022-08-30T00:33:08.492Z,101143.38
2022-08-30T00:35:36.863Z,101134.91
2022-08-30T00:38:09.995Z,101132.81
2022-08-30T00:40:41.897Z,101138.47
2022-08-30T00:43:19.302Z,101137.88
2022-08-30T00:45:47.602Z,101137.94
2022-08-30T00:48:16.766Z,101126.25
2022-08-30T00:50:53.858Z,101136.94
2022-08-30T00:53:28.533Z,101142.19
2022-08-30T00:56:00.103Z,101136.91
2022-08-30T00:58:32.504Z,101150.00
2022-08-30T01:01:04.264Z,101145.13
2022-08-30T01:03:37.159Z,101145.22
2022-08-30T01:06:07.841Z,101147.69
2022-08-30T01:08:36.752Z,101149.09
2022-08-30T01:11:08.622Z,101149.91
2022-08-30T01:13:38.021Z,101154.47
2022-08-30T01:16:08.062Z,101151.81
2022-08-30T01:18:37.748Z,101154.28
2022-08-30T01:21:35.248Z,101149.81
2022-08-30T01:24:04.899Z,101154.00
2022-08-30T01:26:37.469Z,101148.66
2022-08-30T01:29:09.260Z,101159.72
2022-08-30T01:31:38.816Z,101158.53
2022-08-30T01:34:08.478Z,101161.94
2022-08-30T01:36:45.047Z,101152.63
2022-08-30T01:39:18.339Z,101161.28
2022-08-30T01:41:46.626Z,101151.78
2022-08-30T01:44:16.091Z,101160.78
2022-08-30T01:46:47.295Z,101160.94
2022-08-30T01:49:27.780Z,101156.97
2022-08-30T01:52:01.007Z,101149.34
2022-08-30T01:54:38.244Z,101159.31
2022-08-30T01:57:08.879Z,101150.22
2022-08-30T01:59:41.219Z,101149.41
2022-08-30T02:02:11.032Z,101153.28
2022-08-30T02:04:40.401Z,101150.91
2022-08-30T02:07:10.019Z,101151.19
2022-08-30T02:09:39.052Z,101146.84
2022-08-30T02:12:09.190Z,101155.06
2022-08-30T02:14:39.032Z,101154.41
2022-08-30T02:17:08.950Z,101155.66
2022-08-30T02:19:39.214Z,101161.06
2022-08-30T02:22:09.239Z,101161.00
2022-08-30T02:24:39.330Z,101160.00
2022-08-30T02:27:07.801Z,101157.38
2022-08-30T02:29:36.412Z,101164.88
2022-08-30T02:32:05.919Z,101164.34
2022-08-30T02:34:34.354Z,101166.72
2022-08-30T02:37:04.930Z,101171.97
2022-08-30T02:39:33.898Z,101171.50
2022-08-30T02:42:06.041Z,101171.53
2022-08-30T02:44:34.571Z,101173.75
2022-08-30T02:47:02.409Z,101170.78
2022-08-30T02:49:33.846Z,101178.97
2022-08-30T02:52:05.636Z,101179.69
2022-08-30T02:54:37.685Z,101184.81
2022-08-30T02:57:07.774Z,101179.16
2022-08-30T02:59:49.623Z,101184.00
2022-08-30T03:02:18.505Z,101184.97
2022-08-30T03:04:46.412Z,101184.53
2022-08-30T03:07:16.158Z,101182.47
2022-08-30T03:09:44.837Z,101184.25
2022-08-30T03:12:15.179Z,101189.63
2022-08-30T03:14:43.305Z,101191.78
2022-08-30T03:17:15.544Z,101185.78
2022-08-30T03:19:46.441Z,101194.97
2022-08-30T03:22:15.221Z,101193.06
2022-08-30T03:24:43.794Z,101201.25
2022-08-30T03:27:13.099Z,101201.41
2022-08-30T03:29:42.183Z,101199.59
2022-08-30T03:32:10.603Z,101201.50
2022-08-30T03:34:41.225Z,101203.63
2022-08-30T03:37:09.405Z,101201.41
2022-08-30T03:39:39.132Z,101207.22
2022-08-30T03:42:07.936Z,101198.94
2022-08-30T03:44:38.447Z,101200.09
2022-08-30T03:47:09.748Z,101210.09
2022-08-30T03:49:42.627Z,101203.63
2022-08-30T03:52:11.426Z,101203.63
2022-08-30T03:54:43.110Z,101205.19
2022-08-30T03:57:19.647Z,101202.69
2022-08-30T03:59:49.670Z,101207.19
2022-08-30T04:02:18.563Z,101207.81
2022-08-30T04:04:47.956Z,101219.13
2022-08-30T04:07:16.836Z,101218.06
2022-08-30T04:09:46.559Z,101216.97
2022-08-30T04:12:14.544Z,101221.72
2022-08-30T04:14:49.946Z,101229.53
2022-08-30T04:17:18.404Z,101218.56
2022-08-30T04:19:47.386Z,101223.22
2022-08-30T04:22:16.642Z,101223.66
2022-08-30T04:24:52.986Z,101218.19
2022-08-30T04:27:21.488Z,101225.56
2022-08-30T04:29:49.502Z,101214.63
2022-08-30T04:32:18.478Z,101216.94
2022-08-30T04:34:46.377Z,101219.53
2022-08-30T04:37:18.772Z,101214.19
2022-08-30T04:39:49.123Z,101222.34
2022-08-30T04:42:18.810Z,101224.91
2022-08-30T04:44:47.403Z,101212.97
2022-08-30T04:47:16.337Z,101220.78
2022-08-30T04:49:44.900Z,101217.72
2022-08-30T04:52:14.904Z,101222.78
2022-08-30T04:54:43.940Z,101219.75
2022-08-30T04:57:12.402Z,101217.09
2022-08-30T04:59:41.407Z,101223.16
2022-08-30T05:02:13.201Z,101215.03
2022-08-30T05:05:03.374Z,101212.03
2022-08-30T05:07:33.380Z,101218.75
2022-08-30T05:10:01.946Z,101220.19
2022-08-30T05:12:31.272Z,101218.88
2022-08-30T05:15:00.410Z,101220.03
2022-08-30T05:17:28.629Z,101229.16
2022-08-30T05:19:56.514Z,101227.16
2022-08-30T05:22:24.430Z,101230.53
2022-08-30T05:24:53.754Z,101240.75
2022-08-30T05:27:22.368Z,101241.09
2022-08-30T05:29:50.457Z,101238.44
2022-08-30T05:32:19.792Z,101241.44
2022-08-30T05:34:49.371Z,101243.72
2022-08-30T05:37:21.519Z,101245.28
2022-08-30T05:39:51.646Z,101244.44
2022-08-30T05:42:20.569Z,101255.09
2022-08-30T05:44:54.311Z,101252.78
2022-08-30T05:47:25.418Z,101261.44
2022-08-30T05:49:54.519Z,101255.06
2022-08-30T05:52:22.675Z,101254.34
2022-08-30T05:54:59.457Z,101260.69
2022-08-30T05:57:27.433Z,101261.06
2022-08-30T05:59:56.489Z,101261.41
2022-08-30T06:02:24.517Z,101254.09
2022-08-30T06:04:54.345Z,101256.16
2022-08-30T06:07:22.994Z,101251.03
2022-08-30T06:09:51.774Z,101254.13
2022-08-30T06:12:22.441Z,101259.19
2022-08-30T06:14:51.510Z,101255.16
2022-08-30T06:17:22.042Z,101245.56
2022-08-30T06:19:51.672Z,101250.56
2022-08-30T06:22:21.866Z,101253.09
2022-08-30T06:24:58.078Z,101246.50
2022-08-30T06:27:26.342Z,101244.09
2022-08-30T06:29:54.234Z,101252.63
2022-08-30T06:32:21.929Z,101252.91
2022-08-30T06:34:50.488Z,101249.09
2022-08-30T06:37:25.590Z,101259.59
2022-08-30T06:40:00.487Z,101251.91
2022-08-30T06:42:32.417Z,101246.38
2022-08-30T06:45:02.032Z,101241.94
2022-08-30T06:47:30.917Z,101250.25
2022-08-30T06:49:59.470Z,101252.72
2022-08-30T06:52:27.382Z,101254.63
2022-08-30T06:54:59.792Z,101244.13
2022-08-30T06:57:27.656Z,101247.97
2022-08-30T06:59:58.756Z,101244.09
2022-08-30T07:02:27.127Z,101255.69
2022-08-30T07:04:55.083Z,101241.88
2022-08-30T07:07:23.489Z,101255.91
2022-08-30T07:09:54.141Z,101252.72
2022-08-30T07:12:22.553Z,101249.88
2022-08-30T07:14:50.743Z,101252.25
2022-08-30T07:17:37.111Z,101249.41
2022-08-30T07:20:06.163Z,101247.59
2022-08-30T07:22:34.401Z,101243.56
2022-08-30T07:25:02.421Z,101249.75
2022-08-30T07:27:32.007Z,101255.06
2022-08-30T07:30:01.382Z,101247.91
2022-08-30T07:32:29.507Z,101245.91
2022-08-30T07:34:57.469Z,101246.00
2022-08-30T07:37:25.791Z,101243.19
2022-08-30T07:39:54.510Z,101251.91
2022-08-30T07:42:22.490Z,101247.88
2022-08-30T07:44:53.625Z,101248.13
2022-08-30T07:47:24.021Z,101250.75
2022-08-30T07:49:51.918Z,101240.72
2022-08-30T07:52:19.681Z,101243.03
2022-08-30T07:54:47.420Z,101240.00
2022-08-30T07:57:20.658Z,101241.31
2022-08-30T07:59:48.442Z,101235.00
2022-08-30T08:02:16.318Z,101243.38
2022-08-30T08:04:44.863Z,101244.28
2022-08-30T08:07:12.985Z,101238.72
2022-08-30T08:09:40.851Z,101239.94
2022-08-30T08:12:09.164Z,101231.59
2022-08-30T08:14:37.520Z,101224.63
2022-08-30T08:17:06.357Z,101227.41
2022-08-30T08:19:34.206Z,101229.59
2022-08-30T08:22:20.546Z,101228.69
2022-08-30T08:24:50.482Z,101229.78
2022-08-30T08:27:18.461Z,101234.41
2022-08-30T08:29:46.464Z,101227.25
2022-08-30T08:32:15.221Z,101223.09
2022-08-30T08:34:43.128Z,101225.75
2022-08-30T08:37:11.105Z,101229.41
2022-08-30T08:39:38.885Z,101225.94
2022-08-30T08:42:36.524Z,101215.03
2022-08-30T08:45:13.367Z,101218.41
2022-08-30T08:48:01.395Z,101211.56
2022-08-30T08:50:32.734Z,101201.78
2022-08-30T08:53:50.165Z,101200.16
2022-08-30T08:56:20.329Z,101200.34
2022-08-30T08:58:51.906Z,101201.50
2022-08-30T09:01:26.778Z,101207.75
2022-08-30T09:03:57.716Z,101200.06
2022-08-30T09:06:25.703Z,101199.38
2022-08-30T09:08:53.784Z,101195.28
2022-08-30T09:11:27.913Z,101195.31
2022-08-30T09:13:56.441Z,101193.50
2022-08-30T09:16:47.664Z,101198.72
2022-08-30T09:19:44.248Z,101194.66
2022-08-30T09:22:38.242Z,101197.31
2022-08-30T09:25:23.025Z,101184.81
2022-08-30T09:27:53.827Z,101186.78
2022-08-30T09:30:30.117Z,101178.22
2022-08-30T09:33:06.067Z,101190.31
2022-08-30T09:35:44.694Z,101182.22
2022-08-30T09:38:34.215Z,101181.81
2022-08-30T09:41:42.900Z,101181.44
2022-08-30T09:44:10.910Z,101181.81
2022-08-30T09:46:51.246Z,101180.00
2022-08-30T09:49:28.976Z,101181.81
2022-08-30T09:52:18.608Z,101179.94
2022-08-30T09:54:55.304Z,101171.06
2022-08-30T09:57:58.735Z,101172.97
2022-08-30T10:00:29.490Z,101166.16
2022-08-30T10:03:35.357Z,101161.00
2022-08-30T10:06:04.067Z,101167.50
2022-08-30T10:08:51.322Z,101162.94
2022-08-30T10:11:22.253Z,101164.53
2022-08-30T10:14:08.781Z,101160.59
2022-08-30T10:17:13.927Z,101152.47
2022-08-30T10:20:12.930Z,101154.13
2022-08-30T10:22:48.152Z,101148.25
2022-08-30T10:25:27.345Z,101154.88
2022-08-30T10:28:04.181Z,101147.97
2022-08-30T10:30:36.546Z,101149.63
2022-08-30T10:33:19.039Z,101143.94
2022-08-30T10:35:57.882Z,101151.25
2022-08-30T10:38:38.137Z,101142.81
2022-08-30T10:41:29.811Z,101134.34
2022-08-30T10:44:29.650Z,101137.78
2022-08-30T10:47:23.207Z,101129.78
2022-08-30T10:50:03.728Z,101132.06
2022-08-30T10:53:02.376Z,101124.97
2022-08-30T10:55:49.377Z,101126.03
2022-08-30T10:58:19.370Z,101118.78
2022-08-30T11:01:12.684Z,101118.28
2022-08-30T11:04:17.904Z,101107.75
2022-08-30T11:07:16.509Z,101108.69
2022-08-30T11:10:16.866Z,101104.50
2022-08-30T11:13:10.058Z,101100.09
2022-08-30T11:15:57.741Z,101094.63
2022-08-30T11:18:26.636Z,101111.59
2022-08-30T11:21:41.728Z,101096.75
2022-08-30T11:24:31.149Z,101101.75
2022-08-30T11:27:01.708Z,101103.84
2022-08-30T11:29:43.962Z,101101.97
2022-08-30T11:32:17.471Z,101096.63
2022-08-30T11:34:47.558Z,101086.56
2022-08-30T11:37:37.817Z,101092.09
2022-08-30T11:40:22.595Z,101077.22
2022-08-30T11:43:40.514Z,101078.50
2022-08-30T11:46:19.832Z,101082.88
2022-08-30T11:48:54.277Z,101066.78
2022-08-30T11:51:50.834Z,101066.69
2022-08-30T11:54:52.751Z,101064.88
2022-08-30T11:57:32.383Z,101055.16
2022-08-30T12:00:41.728Z,101065.31
2022-08-30T12:03:33.458Z,101059.59
2022-08-30T12:06:08.499Z,101046.63
2022-08-30T12:08:48.403Z,101062.31
2022-08-30T12:11:17.223Z,101052.91
2022-08-30T12:13:46.426Z,101051.97
2022-08-30T12:16:25.314Z,101057.97
2022-08-30T12:19:01.214Z,101044.59
2022-08-30T12:21:44.174Z,101049.41
2022-08-30T12:24:26.547Z,101044.31
2022-08-30T12:26:55.192Z,101054.75
2022-08-30T12:29:26.909Z,101045.03
2022-08-30T12:32:03.339Z,101037.03
2022-08-30T12:34:43.682Z,101046.84
2022-08-30T12:37:37.318Z,101037.44
2022-08-30T12:40:22.548Z,101046.84
2022-08-30T12:43:04.592Z,101038.16
2022-08-30T12:45:43.191Z,101035.94
2022-08-30T12:48:17.753Z,101027.41
2022-08-30T12:50:55.186Z,101021.91
2022-08-30T12:53:31.565Z,101024.28
2022-08-30T12:56:08.747Z,101017.13
2022-08-30T12:58:48.027Z,101018.41
2022-08-30T13:01:19.022Z,101013.06
2022-08-30T13:04:14.336Z,101004.16
2022-08-30T13:07:02.315Z,101002.59
2022-08-30T13:09:32.677Z,101001.72
2022-08-30T13:12:22.100Z,100987.56
2022-08-30T13:14:50.199Z,100987.72
2022-08-30T13:17:30.531Z,100988.50
2022-08-30T13:20:21.457Z,100983.78
2022-08-30T13:23:09.997Z,100977.00
2022-08-30T13:25:39.834Z,100981.75
2022-08-30T13:28:08.801Z,100965.88
2022-08-30T13:30:36.879Z,100968.47
2022-08-30T13:33:04.909Z,100975.06
2022-08-30T13:35:34.418Z,100969.44
2022-08-30T13:38:02.902Z,100971.66
2022-08-30T13:40:31.195Z,100963.97
2022-08-30T13:42:58.979Z,100960.09
2022-08-30T13:45:42.857Z,100953.84
2022-08-30T13:48:12.026Z,100946.16
2022-08-30T13:50:41.393Z,100942.44
2022-08-30T13:53:10.085Z,100943.38
2022-08-30T13:55:41.892Z,100936.09
2022-08-30T13:58:10.674Z,100930.78
2022-08-30T14:00:41.895Z,100936.22
2022-08-30T14:03:11.492Z,100926.25
2022-08-30T14:05:50.116Z,100931.38
2022-08-30T14:08:45.287Z,100931.47
2022-08-30T14:11:18.683Z,100912.56
2022-08-30T14:16:43.637Z,100907.31
2022-08-30T14:19:14.214Z,100903.84
2022-08-30T14:21:43.120Z,100917.69
2022-08-30T14:24:15.534Z,100909.47
2022-08-30T14:26:51.627Z,100914.63
2022-08-30T14:29:30.196Z,100912.50
2022-08-30T14:31:59.973Z,100911.41
2022-08-30T14:34:27.925Z,100915.41
2022-08-30T14:36:56.680Z,100901.78
2022-08-30T14:39:26.313Z,100908.63
2022-08-30T14:41:55.798Z,100902.06
2022-08-30T14:44:24.964Z,100903.72
2022-08-30T14:46:53.326Z,100897.72
2022-08-30T14:49:21.508Z,100905.81
2022-08-30T14:51:50.247Z,100895.16
2022-08-30T14:54:23.421Z,100894.16
2022-08-30T14:56:56.087Z,100898.44
2022-08-30T14:59:25.820Z,100893.19
2022-08-30T15:01:54.472Z,100882.31
2022-08-30T15:04:24.413Z,100886.59
2022-08-30T15:06:53.636Z,100888.31
2022-08-30T15:09:23.944Z,100887.91
2022-08-30T15:11:55.306Z,100882.25
2022-08-30T15:14:29.209Z,100882.56
2022-08-30T15:16:58.540Z,100873.00
2022-08-30T15:19:26.730Z,100876.78
2022-08-30T15:21:55.389Z,100873.88
2022-08-30T15:24:29.623Z,100875.34
2022-08-30T15:27:00.593Z,100874.22
2022-08-30T15:29:30.408Z,100870.16
2022-08-30T15:32:01.937Z,100868.34
2022-08-30T15:34:31.854Z,100868.81
2022-08-30T15:37:00.411Z,100864.59
2022-08-30T15:39:29.142Z,100862.94
2022-08-30T15:42:01.284Z,100871.78
2022-08-30T15:44:32.606Z,100870.16
2022-08-30T15:47:02.619Z,100860.75
2022-08-30T15:49:30.477Z,100868.75
2022-08-30T15:52:02.135Z,100863.31
2022-08-30T15:54:31.491Z,100872.63
2022-08-30T15:57:01.331Z,100876.44
2022-08-30T15:59:31.281Z,100875.94
2022-08-30T16:01:59.487Z,100878.84
2022-08-30T16:04:27.939Z,100878.59
2022-08-30T16:06:56.254Z,100884.59
2022-08-30T16:09:32.363Z,100889.13
2022-08-30T16:12:23.357Z,100888.25
2022-08-30T16:14:52.090Z,100889.97
2022-08-30T16:17:20.269Z,100893.00
2022-08-30T16:19:48.155Z,100892.22
2022-08-30T16:22:22.219Z,100897.84
2022-08-30T16:24:50.382Z,100896.97
2022-08-30T16:27:18.414Z,100905.84
2022-08-30T16:29:50.090Z,100900.75
2022-08-30T16:32:18.578Z,100896.84
2022-08-30T16:34:47.626Z,100902.84
2022-08-30T16:37:15.696Z,100907.03
2022-08-30T16:39:46.393Z,100902.41
2022-08-30T16:42:21.008Z,100911.03
2022-08-30T16:44:51.223Z,100904.25
2022-08-30T16:47:20.377Z,100907.84
2022-08-30T16:49:48.099Z,100915.56
2022-08-30T16:52:16.329Z,100912.44
2022-08-30T16:54:52.116Z,100911.78
2022-08-30T16:57:20.367Z,100916.28
2022-08-30T16:59:50.908Z,100926.13
2022-08-30T17:02:22.877Z,100925.84
2022-08-30T17:04:53.076Z,100928.47
2022-08-30T17:07:22.657Z,100932.34
2022-08-30T17:09:51.463Z,100931.38
2022-08-30T17:12:21.246Z,100938.91
2022-08-30T17:14:50.744Z,100932.94
2022-08-30T17:17:19.328Z,100939.78
2022-08-30T17:19:50.126Z,100942.38
2022-08-30T17:22:18.390Z,100945.31
2022-08-30T17:24:52.337Z,100943.41
2022-08-30T17:27:22.604Z,100943.81
2022-08-30T17:29:51.303Z,100951.00
2022-08-30T17:32:21.620Z,100949.47
2022-08-30T17:37:49.261Z,100958.63
2022-08-30T17:40:20.777Z,100953.28
2022-08-30T17:42:49.753Z,100954.19
2022-08-30T17:45:17.906Z,100953.09
2022-08-30T17:47:48.164Z,100948.06
2022-08-30T17:50:16.503Z,100945.91
2022-08-30T17:52:51.372Z,100945.81
2022-08-30T17:55:22.428Z,100947.63
2022-08-30T17:57:50.910Z,100940.13
2022-08-30T18:00:20.305Z,100943.50
2022-08-30T18:02:49.725Z,100942.06
2022-08-30T18:05:17.842Z,100943.00
2022-08-30T18:07:54.147Z,100942.03
2022-08-30T18:10:30.527Z,100945.41
2022-08-30T18:13:06.087Z,100949.03
2022-08-30T18:15:36.398Z,100949.53
2022-08-30T18:18:07.114Z,100951.66
2022-08-30T18:20:39.848Z,100959.41
2022-08-30T18:23:12.184Z,100955.97
2022-08-30T18:25:42.911Z,100963.16
2022-08-30T18:28:12.509Z,100963.03
2022-08-30T18:33:51.039Z,100955.72
2022-08-30T18:36:21.232Z,100958.47
2022-08-30T18:38:50.010Z,100961.78
2022-08-30T18:41:18.089Z,100955.94
2022-08-30T18:43:48.167Z,100960.03
2022-08-30T18:46:25.657Z,100962.34
2022-08-30T18:48:56.045Z,100970.06
2022-08-30T18:51:31.140Z,100971.75
2022-08-30T18:54:03.723Z,100979.34
2022-08-30T18:56:33.270Z,100989.47
2022-08-30T18:59:03.009Z,100993.88
2022-08-30T19:01:48.741Z,100987.31
2022-08-30T19:04:29.664Z,100980.41
2022-08-30T19:28:46.733Z,100961.94
2022-08-30T19:31:18.895Z,100962.53
2022-08-30T19:33:56.884Z,100951.47
2022-08-30T19:36:34.470Z,100962.25
2022-08-30T19:54:19.047Z,100968.16
2022-08-30T19:56:48.273Z,100966.50
2022-08-30T19:59:18.229Z,100968.97
2022-08-30T20:01:46.754Z,100965.44
2022-08-30T20:04:16.051Z,100964.34
2022-08-30T20:06:46.401Z,100963.25
2022-08-30T20:09:15.413Z,100962.81
2022-08-30T20:11:44.570Z,100963.28
2022-08-30T20:14:13.739Z,100964.34
2022-08-30T20:16:42.249Z,100970.19
2022-08-30T20:19:16.166Z,100966.34
2022-08-30T20:21:46.413Z,100965.56
2022-08-30T20:24:16.168Z,100966.69
2022-08-30T20:26:45.342Z,100974.69
2022-08-30T20:29:13.995Z,100969.44
2022-08-30T20:31:42.805Z,100973.91
2022-08-30T20:34:12.189Z,100977.72
2022-08-30T20:36:41.340Z,100986.47
2022-08-30T20:39:10.508Z,100982.34
2022-08-30T20:41:46.324Z,100983.16
2022-08-30T20:44:18.622Z,100976.81
2022-08-30T20:46:48.406Z,100982.03
2022-08-30T20:49:17.852Z,100977.09
2022-08-30T20:51:49.628Z,100970.47
2022-08-30T20:54:24.556Z,100972.13
2022-08-30T20:56:55.797Z,100978.25
2022-08-30T20:59:27.886Z,100975.50
2022-08-30T21:02:07.901Z,100975.50
2022-08-30T21:04:39.361Z,100977.09
2022-08-30T21:07:08.059Z,100976.00
2022-08-30T21:09:38.755Z,100965.28
2022-08-30T21:12:07.252Z,100960.66
2022-08-30T21:14:38.325Z,100964.19
2022-08-30T21:17:08.163Z,100956.53
2022-08-30T21:19:42.023Z,100960.09
2022-08-30T21:22:13.896Z,100961.72
2022-08-30T21:24:43.414Z,100958.78
2022-08-30T21:27:13.117Z,100960.69
2022-08-30T21:29:42.018Z,100965.13
2022-08-30T21:32:10.635Z,100962.09
2022-08-30T21:34:59.668Z,100959.63
2022-08-30T21:37:31.979Z,100958.22
2022-08-30T21:40:08.359Z,100959.38
2022-08-30T21:42:40.752Z,100954.97
2022-08-30T21:45:10.833Z,100963.22
2022-08-30T21:47:40.032Z,100961.84
2022-08-30T21:50:14.609Z,100963.25
2022-08-30T21:52:43.965Z,100959.94
2022-08-30T21:55:13.229Z,100962.97
2022-08-30T21:57:42.195Z,100964.34
2022-08-30T22:00:19.521Z,100971.50
2022-08-30T22:02:49.191Z,100972.84
2022-08-30T22:05:23.644Z,100971.44
2022-08-30T22:07:53.032Z,100972.28
2022-08-30T22:10:28.105Z,100984.94
2022-08-30T22:12:59.025Z,101006.97
2022-08-30T22:15:28.058Z,101009.47
2022-08-30T22:17:57.807Z,101007.25
2022-08-30T22:20:30.376Z,100994.88
2022-08-30T22:22:59.723Z,100987.16
2022-08-30T22:25:29.271Z,100996.56
2022-08-30T22:27:58.073Z,101001.53
2022-08-30T22:30:29.175Z,101003.16
2022-08-30T22:32:59.937Z,100993.53
2022-08-30T22:35:28.501Z,100979.78
2022-08-30T22:37:59.387Z,100982.53
2022-08-30T22:40:29.441Z,100969.03
2022-08-30T22:43:01.162Z,100976.75
2022-08-30T22:45:31.698Z,100968.47
2022-08-30T22:48:03.753Z,100972.34
2022-08-30T22:50:44.133Z,100973.16
2022-08-30T22:53:24.962Z,100985.00
2022-08-30T22:55:59.919Z,100983.91
2022-08-30T22:58:33.501Z,100979.75
2022-08-30T23:01:04.296Z,100980.59
2022-08-30T23:03:35.259Z,100978.91
2022-08-30T23:06:07.024Z,100972.06
2022-08-30T23:08:37.304Z,100972.34
2022-08-30T23:11:11.530Z,100974.81
2022-08-30T23:13:40.797Z,100970.63
2022-08-30T23:16:11.262Z,100980.31
2022-08-30T23:18:42.909Z,100971.78
2022-08-30T23:21:24.476Z,100967.66
2022-08-30T23:24:15.198Z,100969.28
2022-08-30T23:27:06.655Z,100961.88
2022-08-30T23:29:56.446Z,100967.88
2022-08-30T23:32:45.349Z,100965.69
2022-08-30T23:35:33.519Z,100955.78
2022-08-30T23:38:25.051Z,100952.50
2022-08-30T23:41:12.257Z,100955.81
2022-08-30T23:44:04.257Z,100951.34
2022-08-30T23:46:51.490Z,100951.94
2022-08-30T23:49:39.431Z,100948.06
2022-08-30T23:52:27.582Z,100936.50
2022-08-30T23:55:14.589Z,100935.13
2022-08-30T23:58:06.729Z,100940.66
